Strona główna
METAR-TAF:

METAR-TAF

Lotnisko :

Port lotniczy Skellefteå

Skellefteå, Szwecja

Szerokość geograficzna: 64-38N, Długość geograficzna: 021-05E, wysokość: 49 m

Aktualna obserwacja pogody

Raport powstał 23 minut temu, godzina 00:20 UTC
Wiatr 3 kt od wschodnio-północny wschód
Temperatura 0°C
Wilgotność 100%
Ciśnienie 993 hPa
Widzialność: 2000 m
słaby śnieg

METAR: ESNS 160020Z AUTO 06003KT 2000 -SN VV006 00/M00 Q0993

czas: 01:43 (00:43 UTC)

Prognoza

Raport powstał 4 godziny i 13 minut temu, godzina 20:30 UTC
Prognoza ważna od 15 godzina 21 UTC do 15 godzina 23 UTC
Wiatr 5 kt od wschód
Widzialność: 6000 m
Zachmurzenie całkowite na wysokości 300 ft
słaby śnieg
Prawdopodobieństwo 40%
od 15 godzina 21 UTC do 15 godzina 23 UTC
Widzialność: 4000 m
Przerywane chmury na wysokości 500 ft

TAF: ESNS 152030Z 1521/1523 08005KT 6000 -SN OVC003 PROB40 1521/1523 4000 BKN005

Obserwacja i prognoza pogody dla ponad 4000 lotnisk (raport METAR i TAF).

Dostępne stacje oznaczono żółtymi i czerwonymi punktami na mapie.

Najedź kursorem aby zobaczyć nazwę stacji.

Kliknij aby zobaczyć obserwacje i prognozy pogody.

Aby zmienić mapę: kliknij na zielony przycisk z czarnym krzyżykiem, aby powiększyć; na zielony przycisk z myślnikiem, aby pomniejszyć; na zielone strzałki, aby przejść do map sąsiednich.


METAR-TAF: